sensor_id;sensor_type;location;lat;lon;timestamp;temperature;humidity
1301;DHT22;67431;48.806;9.160;2023-02-15T00:01:59;0.30;99.90
1301;DHT22;67431;48.806;9.160;2023-02-15T00:04:25;0.30;99.90
1301;DHT22;67431;48.806;9.160;2023-02-15T00:07:13;0.20;99.90
1301;DHT22;67431;48.806;9.160;2023-02-15T00:09:39;0.30;99.90
1301;DHT22;67431;48.806;9.160;2023-02-15T00:12:05;0.20;99.90
1301;DHT22;67431;48.806;9.160;2023-02-15T00:14:32;0.20;99.90
1301;DHT22;67431;48.806;9.160;2023-02-15T00:16:57;0.20;99.90
1301;DHT22;67431;48.806;9.160;2023-02-15T00:19:25;0.20;99.90
1301;DHT22;67431;48.806;9.160;2023-02-15T00:21:51;0.20;99.90
1301;DHT22;67431;48.806;9.160;2023-02-15T00:24:19;0.10;99.90
1301;DHT22;67431;48.806;9.160;2023-02-15T00:26:46;0.20;99.90
1301;DHT22;67431;48.806;9.160;2023-02-15T00:29:13;0.20;99.90
1301;DHT22;67431;48.806;9.160;2023-02-15T00:31:39;0.20;99.90
1301;DHT22;67431;48.806;9.160;2023-02-15T00:34:19;0.10;99.90
1301;DHT22;67431;48.806;9.160;2023-02-15T00:36:46;0.10;99.90
1301;DHT22;67431;48.806;9.160;2023-02-15T00:39:14;0.10;99.90
1301;DHT22;67431;48.806;9.160;2023-02-15T00:41:40;0.10;99.90
1301;DHT22;67431;48.806;9.160;2023-02-15T00:44:07;0.10;99.90
1301;DHT22;67431;48.806;9.160;2023-02-15T00:46:33;0.10;99.90
1301;DHT22;67431;48.806;9.160;2023-02-15T00:48:59;0.10;99.90
1301;DHT22;67431;48.806;9.160;2023-02-15T00:51:25;0.00;99.90
1301;DHT22;67431;48.806;9.160;2023-02-15T00:53:51;0.10;99.90
1301;DHT22;67431;48.806;9.160;2023-02-15T00:56:17;0.00;99.90
1301;DHT22;67431;48.806;9.160;2023-02-15T00:58:43;0.10;99.90
1301;DHT22;67431;48.806;9.160;2023-02-15T01:01:16;0.00;99.90
1301;DHT22;67431;48.806;9.160;2023-02-15T01:03:44;0.00;99.90
1301;DHT22;67431;48.806;9.160;2023-02-15T01:06:12;0.00;99.90
1301;DHT22;67431;48.806;9.160;2023-02-15T01:08:38;0.00;99.90
1301;DHT22;67431;48.806;9.160;2023-02-15T01:11:10;0.10;99.90
1301;DHT22;67431;48.806;9.160;2023-02-15T01:13:36;0.10;99.90
1301;DHT22;67431;48.806;9.160;2023-02-15T01:16:03;0.00;99.90
1301;DHT22;67431;48.806;9.160;2023-02-15T01:18:30;0.00;99.90
1301;DHT22;67431;48.806;9.160;2023-02-15T01:20:56;0.00;99.90
1301;DHT22;67431;48.806;9.160;2023-02-15T01:23:23;0.00;99.90
1301;DHT22;67431;48.806;9.160;2023-02-15T01:25:49;0.00;99.90
1301;DHT22;67431;48.806;9.160;2023-02-15T01:28:15;-0.10;99.90
1301;DHT22;67431;48.806;9.160;2023-02-15T01:30:41;-0.10;99.90
1301;DHT22;67431;48.806;9.160;2023-02-15T01:33:07;-0.10;99.90
1301;DHT22;67431;48.806;9.160;2023-02-15T01:35:37;-0.10;99.90
1301;DHT22;67431;48.806;9.160;2023-02-15T01:38:02;-0.30;99.90
1301;DHT22;67431;48.806;9.160;2023-02-15T01:40:29;-0.20;99.90
1301;DHT22;67431;48.806;9.160;2023-02-15T01:42:55;-0.20;99.90
1301;DHT22;67431;48.806;9.160;2023-02-15T01:45:27;-0.20;99.90
1301;DHT22;67431;48.806;9.160;2023-02-15T01:48:08;-0.20;99.90
1301;DHT22;67431;48.806;9.160;2023-02-15T01:50:43;-0.30;99.90
1301;DHT22;67431;48.806;9.160;2023-02-15T01:53:16;-0.20;99.90
1301;DHT22;67431;48.806;9.160;2023-02-15T01:55:47;-0.30;99.90
1301;DHT22;67431;48.806;9.160;2023-02-15T01:58:16;-0.30;99.90
1301;DHT22;67431;48.806;9.160;2023-02-15T02:00:43;-0.30;99.90
1301;DHT22;67431;48.806;9.160;2023-02-15T02:03:09;-0.30;99.90
1301;DHT22;67431;48.806;9.160;2023-02-15T02:05:35;-0.30;99.90
1301;DHT22;67431;48.806;9.160;2023-02-15T02:08:03;-0.30;99.90
1301;DHT22;67431;48.806;9.160;2023-02-15T02:10:31;-0.30;99.90
1301;DHT22;67431;48.806;9.160;2023-02-15T02:13:01;-0.40;99.90
1301;DHT22;67431;48.806;9.160;2023-02-15T02:15:56;-0.40;99.90
1301;DHT22;67431;48.806;9.160;2023-02-15T02:18:34;-0.40;99.90
1301;DHT22;67431;48.806;9.160;2023-02-15T02:21:20;-0.40;99.90
1301;DHT22;67431;48.806;9.160;2023-02-15T02:32:42;-0.70;99.90
1301;DHT22;67431;48.806;9.160;2023-02-15T02:42:49;-0.10;99.90
1301;DHT22;67431;48.806;9.160;2023-02-15T02:45:46;-0.20;99.90
1301;DHT22;67431;48.806;9.160;2023-02-15T02:48:21;-0.40;99.90
1301;DHT22;67431;48.806;9.160;2023-02-15T02:50:48;-0.40;99.90
1301;DHT22;67431;48.806;9.160;2023-02-15T02:53:16;-0.40;99.90
1301;DHT22;67431;48.806;9.160;2023-02-15T02:56:19;-0.50;99.90
1301;DHT22;67431;48.806;9.160;2023-02-15T02:59:10;-0.50;99.90
1301;DHT22;67431;48.806;9.160;2023-02-15T03:01:49;-0.20;99.90
1301;DHT22;67431;48.806;9.160;2023-02-15T03:04:24;-0.30;99.90
1301;DHT22;67431;48.806;9.160;2023-02-15T03:07:00;-0.20;99.90
1301;DHT22;67431;48.806;9.160;2023-02-15T03:09:30;-0.30;99.90
1301;DHT22;67431;48.806;9.160;2023-02-15T03:12:01;-0.30;99.90
1301;DHT22;67431;48.806;9.160;2023-02-15T03:14:31;-0.20;99.90
1301;DHT22;67431;48.806;9.160;2023-02-15T03:16:58;-0.20;99.90
1301;DHT22;67431;48.806;9.160;2023-02-15T03:19:29;-0.20;99.90
1301;DHT22;67431;48.806;9.160;2023-02-15T03:22:03;-0.40;99.90
1301;DHT22;67431;48.806;9.160;2023-02-15T03:25:02;-0.50;99.90
1301;DHT22;67431;48.806;9.160;2023-02-15T03:27:43;-0.60;99.90
1301;DHT22;67431;48.806;9.160;2023-02-15T03:30:10;-0.70;99.90
1301;DHT22;67431;48.806;9.160;2023-02-15T03:32:39;-0.80;99.90
1301;DHT22;67431;48.806;9.160;2023-02-15T03:35:06;-0.70;99.90
1301;DHT22;67431;48.806;9.160;2023-02-15T03:37:42;-0.60;99.90
1301;DHT22;67431;48.806;9.160;2023-02-15T03:45:33;-0.90;99.90
1301;DHT22;67431;48.806;9.160;2023-02-15T03:48:01;-0.80;99.90
1301;DHT22;67431;48.806;9.160;2023-02-15T03:50:31;-0.90;99.90
1301;DHT22;67431;48.806;9.160;2023-02-15T03:53:18;-0.90;99.90
1301;DHT22;67431;48.806;9.160;2023-02-15T03:55:47;-0.80;99.90
1301;DHT22;67431;48.806;9.160;2023-02-15T03:58:13;-0.80;99.90
1301;DHT22;67431;48.806;9.160;2023-02-15T04:01:03;-0.80;99.90
1301;DHT22;67431;48.806;9.160;2023-02-15T04:03:57;-0.80;99.90
1301;DHT22;67431;48.806;9.160;2023-02-15T04:06:25;-0.90;99.90
1301;DHT22;67431;48.806;9.160;2023-02-15T04:08:51;-0.90;99.90
1301;DHT22;67431;48.806;9.160;2023-02-15T04:11:35;-0.90;99.90
1301;DHT22;67431;48.806;9.160;2023-02-15T04:14:01;-1.00;99.90
1301;DHT22;67431;48.806;9.160;2023-02-15T04:16:47;-1.00;99.90
1301;DHT22;67431;48.806;9.160;2023-02-15T04:19:12;-1.00;99.90
1301;DHT22;67431;48.806;9.160;2023-02-15T04:21:57;-0.80;99.90
1301;DHT22;67431;48.806;9.160;2023-02-15T04:24:41;-0.70;99.90
1301;DHT22;67431;48.806;9.160;2023-02-15T04:27:26;-0.70;99.90
1301;DHT22;67431;48.806;9.160;2023-02-15T04:29:52;-0.60;99.90
1301;DHT22;67431;48.806;9.160;2023-02-15T04:32:19;-0.50;99.90
1301;DHT22;67431;48.806;9.160;2023-02-15T04:34:44;-0.50;99.90
1301;DHT22;67431;48.806;9.160;2023-02-15T04:37:10;-0.60;99.90
1301;DHT22;67431;48.806;9.160;2023-02-15T04:39:36;-0.60;99.90
1301;DHT22;67431;48.806;9.160;2023-02-15T04:42:02;-0.60;99.90
1301;DHT22;67431;48.806;9.160;2023-02-15T04:44:29;-0.60;99.90
1301;DHT22;67431;48.806;9.160;2023-02-15T04:46:54;-0.70;99.90
1301;DHT22;67431;48.806;9.160;2023-02-15T04:49:20;-0.80;99.90
1301;DHT22;67431;48.806;9.160;2023-02-15T04:51:46;-0.70;99.90
1301;DHT22;67431;48.806;9.160;2023-02-15T04:54:13;-0.70;99.90
1301;DHT22;67431;48.806;9.160;2023-02-15T04:56:39;-0.60;99.90
1301;DHT22;67431;48.806;9.160;2023-02-15T04:59:05;-0.50;99.90
1301;DHT22;67431;48.806;9.160;2023-02-15T05:01:31;-0.60;99.90
1301;DHT22;67431;48.806;9.160;2023-02-15T05:03:56;-0.70;99.90
1301;DHT22;67431;48.806;9.160;2023-02-15T05:06:22;-0.80;99.90
1301;DHT22;67431;48.806;9.160;2023-02-15T05:08:48;-0.90;99.90
1301;DHT22;67431;48.806;9.160;2023-02-15T05:11:14;-0.90;99.90
1301;DHT22;67431;48.806;9.160;2023-02-15T05:13:40;-1.00;99.90
1301;DHT22;67431;48.806;9.160;2023-02-15T05:16:06;-1.00;99.90
1301;DHT22;67431;48.806;9.160;2023-02-15T05:18:37;-1.10;99.90
1301;DHT22;67431;48.806;9.160;2023-02-15T05:21:03;-1.10;99.90
1301;DHT22;67431;48.806;9.160;2023-02-15T05:23:29;-1.10;99.90
1301;DHT22;67431;48.806;9.160;2023-02-15T05:25:55;-0.80;99.90
1301;DHT22;67431;48.806;9.160;2023-02-15T05:28:39;-0.70;99.90
1301;DHT22;67431;48.806;9.160;2023-02-15T05:31:12;-0.50;99.90
1301;DHT22;67431;48.806;9.160;2023-02-15T05:33:38;-0.60;99.90
1301;DHT22;67431;48.806;9.160;2023-02-15T05:36:05;-0.60;99.90
1301;DHT22;67431;48.806;9.160;2023-02-15T05:38:31;-0.60;99.90
1301;DHT22;67431;48.806;9.160;2023-02-15T05:40:58;-0.50;99.90
1301;DHT22;67431;48.806;9.160;2023-02-15T05:43:24;-0.40;99.90
1301;DHT22;67431;48.806;9.160;2023-02-15T05:45:53;-0.30;99.90
1301;DHT22;67431;48.806;9.160;2023-02-15T05:48:20;-0.30;99.90
1301;DHT22;67431;48.806;9.160;2023-02-15T05:50:46;-0.30;99.90
1301;DHT22;67431;48.806;9.160;2023-02-15T05:53:21;-0.30;99.90
1301;DHT22;67431;48.806;9.160;2023-02-15T05:55:47;-0.20;99.90
1301;DHT22;67431;48.806;9.160;2023-02-15T05:58:13;-0.30;99.90
1301;DHT22;67431;48.806;9.160;2023-02-15T06:00:38;-0.40;99.90
1301;DHT22;67431;48.806;9.160;2023-02-15T06:03:04;-0.40;99.90
1301;DHT22;67431;48.806;9.160;2023-02-15T06:05:30;-0.50;99.90
1301;DHT22;67431;48.806;9.160;2023-02-15T06:07:55;-0.60;99.90
1301;DHT22;67431;48.806;9.160;2023-02-15T06:10:21;-0.60;99.90
1301;DHT22;67431;48.806;9.160;2023-02-15T06:12:47;-0.60;99.90
1301;DHT22;67431;48.806;9.160;2023-02-15T06:15:13;-0.60;99.90
1301;DHT22;67431;48.806;9.160;2023-02-15T06:17:41;-0.70;99.90
1301;DHT22;67431;48.806;9.160;2023-02-15T06:20:08;-0.80;99.90
1301;DHT22;67431;48.806;9.160;2023-02-15T06:22:34;-0.90;99.90
1301;DHT22;67431;48.806;9.160;2023-02-15T06:25:01;-0.90;99.90
1301;DHT22;67431;48.806;9.160;2023-02-15T06:27:27;-1.00;99.90
1301;DHT22;67431;48.806;9.160;2023-02-15T06:29:53;-1.00;99.90
1301;DHT22;67431;48.806;9.160;2023-02-15T06:32:19;-1.10;99.90
1301;DHT22;67431;48.806;9.160;2023-02-15T06:34:44;-1.30;99.90
1301;DHT22;67431;48.806;9.160;2023-02-15T06:37:10;-1.20;99.90
1301;DHT22;67431;48.806;9.160;2023-02-15T06:39:36;-1.20;99.90
1301;DHT22;67431;48.806;9.160;2023-02-15T06:42:02;-1.00;99.90
1301;DHT22;67431;48.806;9.160;2023-02-15T06:44:27;-0.90;99.90
1301;DHT22;67431;48.806;9.160;2023-02-15T06:46:53;-1.00;99.90
1301;DHT22;67431;48.806;9.160;2023-02-15T06:49:19;-1.00;99.90
1301;DHT22;67431;48.806;9.160;2023-02-15T06:51:45;-0.90;99.90
1301;DHT22;67431;48.806;9.160;2023-02-15T06:54:11;-0.90;99.90
1301;DHT22;67431;48.806;9.160;2023-02-15T06:56:37;-1.00;99.90
1301;DHT22;67431;48.806;9.160;2023-02-15T06:59:04;-0.90;99.90
1301;DHT22;67431;48.806;9.160;2023-02-15T07:01:30;-1.00;99.90
1301;DHT22;67431;48.806;9.160;2023-02-15T07:03:56;-1.00;99.90
1301;DHT22;67431;48.806;9.160;2023-02-15T07:06:21;-0.90;99.90
1301;DHT22;67431;48.806;9.160;2023-02-15T07:08:47;-0.90;99.90
1301;DHT22;67431;48.806;9.160;2023-02-15T07:11:13;-0.90;99.90
1301;DHT22;67431;48.806;9.160;2023-02-15T07:13:57;-0.90;99.90
1301;DHT22;67431;48.806;9.160;2023-02-15T07:16:25;-0.80;99.90
1301;DHT22;67431;48.806;9.160;2023-02-15T07:18:51;-0.80;99.90
1301;DHT22;67431;48.806;9.160;2023-02-15T07:21:20;-0.60;99.90
1301;DHT22;67431;48.806;9.160;2023-02-15T07:23:46;-0.60;99.90
1301;DHT22;67431;48.806;9.160;2023-02-15T07:26:12;-0.60;99.90
1301;DHT22;67431;48.806;9.160;2023-02-15T07:28:37;-0.50;99.90
1301;DHT22;67431;48.806;9.160;2023-02-15T07:31:05;-0.30;99.90
1301;DHT22;67431;48.806;9.160;2023-02-15T07:33:31;-0.20;99.90
1301;DHT22;67431;48.806;9.160;2023-02-15T07:35:59;-0.20;99.90
1301;DHT22;67431;48.806;9.160;2023-02-15T07:38:26;-0.20;99.90
1301;DHT22;67431;48.806;9.160;2023-02-15T07:41:04;-0.20;99.90
1301;DHT22;67431;48.806;9.160;2023-02-15T07:43:32;-0.20;99.90
1301;DHT22;67431;48.806;9.160;2023-02-15T07:46:11;-0.10;99.90
1301;DHT22;67431;48.806;9.160;2023-02-15T07:48:38;-0.10;99.90
1301;DHT22;67431;48.806;9.160;2023-02-15T07:51:06;-0.10;99.90
1301;DHT22;67431;48.806;9.160;2023-02-15T07:53:32;-0.10;99.90
1301;DHT22;67431;48.806;9.160;2023-02-15T07:55:59;-0.10;99.90
1301;DHT22;67431;48.806;9.160;2023-02-15T07:58:27;0.00;99.90
1301;DHT22;67431;48.806;9.160;2023-02-15T08:01:13;0.00;99.90
1301;DHT22;67431;48.806;9.160;2023-02-15T08:03:39;0.10;99.90
1301;DHT22;67431;48.806;9.160;2023-02-15T08:06:05;0.00;99.90
1301;DHT22;67431;48.806;9.160;2023-02-15T08:08:34;0.20;99.90
1301;DHT22;67431;48.806;9.160;2023-02-15T08:16:38;0.40;99.90
1301;DHT22;67431;48.806;9.160;2023-02-15T08:21:42;0.40;99.90
1301;DHT22;67431;48.806;9.160;2023-02-15T08:24:10;0.50;99.90
1301;DHT22;67431;48.806;9.160;2023-02-15T08:26:36;0.50;99.90
1301;DHT22;67431;48.806;9.160;2023-02-15T08:29:03;0.70;99.90
1301;DHT22;67431;48.806;9.160;2023-02-15T08:31:30;0.80;99.90
1301;DHT22;67431;48.806;9.160;2023-02-15T08:33:56;0.90;99.90
1301;DHT22;67431;48.806;9.160;2023-02-15T08:36:27;0.70;99.90
1301;DHT22;67431;48.806;9.160;2023-02-15T08:38:56;0.80;99.90
1301;DHT22;67431;48.806;9.160;2023-02-15T08:41:24;0.90;99.90
1301;DHT22;67431;48.806;9.160;2023-02-15T08:43:53;1.00;99.90
1301;DHT22;67431;48.806;9.160;2023-02-15T08:46:19;0.90;99.90
1301;DHT22;67431;48.806;9.160;2023-02-15T08:48:46;1.00;99.90
1301;DHT22;67431;48.806;9.160;2023-02-15T08:51:20;1.00;99.90
1301;DHT22;67431;48.806;9.160;2023-02-15T08:53:49;1.10;99.90
1301;DHT22;67431;48.806;9.160;2023-02-15T08:56:16;1.10;99.90
1301;DHT22;67431;48.806;9.160;2023-02-15T08:58:42;1.30;99.90
1301;DHT22;67431;48.806;9.160;2023-02-15T09:01:12;1.60;99.90
1301;DHT22;67431;48.806;9.160;2023-02-15T09:03:39;1.80;99.90
1301;DHT22;67431;48.806;9.160;2023-02-15T09:06:05;1.90;99.90
1301;DHT22;67431;48.806;9.160;2023-02-15T09:08:33;2.00;99.90
1301;DHT22;67431;48.806;9.160;2023-02-15T09:11:07;2.10;99.90
1301;DHT22;67431;48.806;9.160;2023-02-15T09:13:33;2.40;99.90
1301;DHT22;67431;48.806;9.160;2023-02-15T09:16:04;2.60;99.90
1301;DHT22;67431;48.806;9.160;2023-02-15T09:18:33;2.70;99.90
1301;DHT22;67431;48.806;9.160;2023-02-15T09:21:05;2.60;99.90
1301;DHT22;67431;48.806;9.160;2023-02-15T09:23:31;2.50;99.90
1301;DHT22;67431;48.806;9.160;2023-02-15T09:26:02;2.40;99.90
1301;DHT22;67431;48.806;9.160;2023-02-15T09:28:27;2.40;99.90
1301;DHT22;67431;48.806;9.160;2023-02-15T09:30:53;2.50;99.90
1301;DHT22;67431;48.806;9.160;2023-02-15T09:33:19;2.80;99.90
1301;DHT22;67431;48.806;9.160;2023-02-15T09:35:45;3.20;99.90
1301;DHT22;67431;48.806;9.160;2023-02-15T09:38:10;3.40;99.90
1301;DHT22;67431;48.806;9.160;2023-02-15T09:40:49;3.60;99.90
1301;DHT22;67431;48.806;9.160;2023-02-15T09:43:33;3.70;99.90
1301;DHT22;67431;48.806;9.160;2023-02-15T10:00:36;9.90;99.90
1301;DHT22;67431;48.806;9.160;2023-02-15T10:03:25;11.20;99.90
1301;DHT22;67431;48.806;9.160;2023-02-15T10:08:41;13.10;99.90
1301;DHT22;67431;48.806;9.160;2023-02-15T10:11:22;14.40;98.00
1301;DHT22;67431;48.806;9.160;2023-02-15T10:14:13;15.20;95.00
1301;DHT22;67431;48.806;9.160;2023-02-15T10:16:45;16.00;92.20
1301;DHT22;67431;48.806;9.160;2023-02-15T10:27:45;18.00;73.80
1301;DHT22;67431;48.806;9.160;2023-02-15T10:30:27;18.10;72.40
1301;DHT22;67431;48.806;9.160;2023-02-15T10:33:04;18.80;70.80
1301;DHT22;67431;48.806;9.160;2023-02-15T10:38:40;20.00;66.30
1301;DHT22;67431;48.806;9.160;2023-02-15T10:47:07;20.30;60.10
1301;DHT22;67431;48.806;9.160;2023-02-15T11:00:45;20.60;63.30
1301;DHT22;67431;48.806;9.160;2023-02-15T11:06:11;21.40;57.80
1301;DHT22;67431;48.806;9.160;2023-02-15T11:09:12;21.60;58.00
1301;DHT22;67431;48.806;9.160;2023-02-15T11:11:42;22.30;64.90
1301;DHT22;67431;48.806;9.160;2023-02-15T11:17:17;22.60;55.40
1301;DHT22;67431;48.806;9.160;2023-02-15T11:22:29;24.30;61.20
1301;DHT22;67431;48.806;9.160;2023-02-15T11:24:58;24.50;55.40
1301;DHT22;67431;48.806;9.160;2023-02-15T11:27:31;25.00;54.60
1301;DHT22;67431;48.806;9.160;2023-02-15T11:30:05;23.90;52.20
1301;DHT22;67431;48.806;9.160;2023-02-15T11:32:45;23.60;54.40
1301;DHT22;67431;48.806;9.160;2023-02-15T11:35:29;24.10;53.20
1301;DHT22;67431;48.806;9.160;2023-02-15T11:38:19;24.60;55.10
1301;DHT22;67431;48.806;9.160;2023-02-15T11:40:48;24.60;51.70
1301;DHT22;67431;48.806;9.160;2023-02-15T11:45:48;25.00;58.20
1301;DHT22;67431;48.806;9.160;2023-02-15T11:48:15;24.30;51.50
1301;DHT22;67431;48.806;9.160;2023-02-15T11:50:43;24.10;51.90
1301;DHT22;67431;48.806;9.160;2023-02-15T11:53:16;23.80;52.70
1301;DHT22;67431;48.806;9.160;2023-02-15T11:55:44;23.90;52.20
1301;DHT22;67431;48.806;9.160;2023-02-15T12:00:47;24.40;52.70
1301;DHT22;67431;48.806;9.160;2023-02-15T12:03:24;24.80;55.40
1301;DHT22;67431;48.806;9.160;2023-02-15T12:05:58;25.00;51.70
1301;DHT22;67431;48.806;9.160;2023-02-15T12:08:37;24.90;53.40
1301;DHT22;67431;48.806;9.160;2023-02-15T12:11:09;24.80;56.60
1301;DHT22;67431;48.806;9.160;2023-02-15T12:13:59;25.30;52.70
1301;DHT22;67431;48.806;9.160;2023-02-15T12:16:27;25.40;51.40
1301;DHT22;67431;48.806;9.160;2023-02-15T12:18:59;25.40;51.30
1301;DHT22;67431;48.806;9.160;2023-02-15T12:21:31;24.80;52.50
1301;DHT22;67431;48.806;9.160;2023-02-15T12:26:40;25.20;53.00
1301;DHT22;67431;48.806;9.160;2023-02-15T12:29:15;25.60;52.80
1301;DHT22;67431;48.806;9.160;2023-02-15T12:31:46;25.90;51.00
1301;DHT22;67431;48.806;9.160;2023-02-15T12:34:25;25.70;53.10
1301;DHT22;67431;48.806;9.160;2023-02-15T12:36:55;25.50;50.60
1301;DHT22;67431;48.806;9.160;2023-02-15T12:39:33;25.40;51.10
1301;DHT22;67431;48.806;9.160;2023-02-15T12:42:15;25.20;52.30
1301;DHT22;67431;48.806;9.160;2023-02-15T12:44:54;25.60;55.60
1301;DHT22;67431;48.806;9.160;2023-02-15T12:47:20;25.80;50.30
1301;DHT22;67431;48.806;9.160;2023-02-15T12:52:31;25.20;51.30
1301;DHT22;67431;48.806;9.160;2023-02-15T12:55:11;24.80;50.90
1301;DHT22;67431;48.806;9.160;2023-02-15T12:57:37;24.70;56.10
1301;DHT22;67431;48.806;9.160;2023-02-15T13:00:24;24.90;51.80
1301;DHT22;67431;48.806;9.160;2023-02-15T13:02:53;25.10;51.40
1301;DHT22;67431;48.806;9.160;2023-02-15T13:05:28;25.10;52.40
1301;DHT22;67431;48.806;9.160;2023-02-15T13:07:58;25.40;52.00
1301;DHT22;67431;48.806;9.160;2023-02-15T13:10:29;25.10;53.10
1301;DHT22;67431;48.806;9.160;2023-02-15T13:12:57;25.30;51.50
1301;DHT22;67431;48.806;9.160;2023-02-15T13:17:56;25.80;51.30
1301;DHT22;67431;48.806;9.160;2023-02-15T13:20:22;25.80;50.90
1301;DHT22;67431;48.806;9.160;2023-02-15T13:22:58;26.10;50.10
1301;DHT22;67431;48.806;9.160;2023-02-15T13:25:26;25.90;50.00
1301;DHT22;67431;48.806;9.160;2023-02-15T13:28:06;25.40;50.50
1301;DHT22;67431;48.806;9.160;2023-02-15T13:30:38;25.70;51.40
1301;DHT22;67431;48.806;9.160;2023-02-15T13:33:09;25.70;51.40
1301;DHT22;67431;48.806;9.160;2023-02-15T13:35:47;25.40;50.90
1301;DHT22;67431;48.806;9.160;2023-02-15T13:38:32;25.30;51.00
1301;DHT22;67431;48.806;9.160;2023-02-15T13:41:35;25.10;54.30
1301;DHT22;67431;48.806;9.160;2023-02-15T13:47:21;24.80;51.50
1301;DHT22;67431;48.806;9.160;2023-02-15T13:52:38;24.40;50.70
1301;DHT22;67431;48.806;9.160;2023-02-15T13:58:26;23.70;52.10
1301;DHT22;67431;48.806;9.160;2023-02-15T14:01:19;23.60;52.00
1301;DHT22;67431;48.806;9.160;2023-02-15T14:17:28;23.60;52.30
1301;DHT22;67431;48.806;9.160;2023-02-15T14:25:44;24.30;52.90
1301;DHT22;67431;48.806;9.160;2023-02-15T14:28:19;24.00;51.50
1301;DHT22;67431;48.806;9.160;2023-02-15T14:30:49;24.10;51.00
1301;DHT22;67431;48.806;9.160;2023-02-15T14:35:54;24.00;51.00
1301;DHT22;67431;48.806;9.160;2023-02-15T14:46:50;23.90;58.70
1301;DHT22;67431;48.806;9.160;2023-02-15T14:49:25;23.30;51.60
1301;DHT22;67431;48.806;9.160;2023-02-15T14:51:55;23.00;51.50
1301;DHT22;67431;48.806;9.160;2023-02-15T15:02:27;22.20;52.00
1301;DHT22;67431;48.806;9.160;2023-02-15T15:12:56;21.90;51.90
1301;DHT22;67431;48.806;9.160;2023-02-15T15:18:07;21.70;57.20
1301;DHT22;67431;48.806;9.160;2023-02-15T15:20:48;21.40;52.40
1301;DHT22;67431;48.806;9.160;2023-02-15T15:23:38;21.20;54.40
1301;DHT22;67431;48.806;9.160;2023-02-15T15:26:26;21.30;53.20
1301;DHT22;67431;48.806;9.160;2023-02-15T15:28:53;21.50;52.60
1301;DHT22;67431;48.806;9.160;2023-02-15T15:37:51;20.60;53.20
1301;DHT22;67431;48.806;9.160;2023-02-15T15:43:35;21.00;53.50
1301;DHT22;67431;48.806;9.160;2023-02-15T15:48:39;19.60;53.90
1301;DHT22;67431;48.806;9.160;2023-02-15T15:53:45;19.20;53.90
1301;DHT22;67431;48.806;9.160;2023-02-15T15:56:24;18.90;54.40
1301;DHT22;67431;48.806;9.160;2023-02-15T15:58:59;18.40;55.10
1301;DHT22;67431;48.806;9.160;2023-02-15T16:01:27;17.90;56.10
1301;DHT22;67431;48.806;9.160;2023-02-15T16:03:56;17.90;56.00
1301;DHT22;67431;48.806;9.160;2023-02-15T16:06:28;17.60;56.30
1301;DHT22;67431;48.806;9.160;2023-02-15T16:08:54;17.20;57.00
1301;DHT22;67431;48.806;9.160;2023-02-15T16:11:29;16.70;58.00
1301;DHT22;67431;48.806;9.160;2023-02-15T16:13:55;16.30;58.90
1301;DHT22;67431;48.806;9.160;2023-02-15T16:16:24;15.80;59.20
1301;DHT22;67431;48.806;9.160;2023-02-15T16:18:51;15.20;60.20
1301;DHT22;67431;48.806;9.160;2023-02-15T16:21:23;14.70;61.40
1301;DHT22;67431;48.806;9.160;2023-02-15T16:29:32;12.90;66.30
1301;DHT22;67431;48.806;9.160;2023-02-15T16:32:15;12.30;68.70
1301;DHT22;67431;48.806;9.160;2023-02-15T16:35:01;11.80;70.70
1301;DHT22;67431;48.806;9.160;2023-02-15T16:37:34;11.40;72.60
1301;DHT22;67431;48.806;9.160;2023-02-15T16:40:00;11.10;74.10
1301;DHT22;67431;48.806;9.160;2023-02-15T16:42:29;10.70;76.10
1301;DHT22;67431;48.806;9.160;2023-02-15T16:45:04;10.50;77.70
1301;DHT22;67431;48.806;9.160;2023-02-15T16:47:33;10.20;78.70
1301;DHT22;67431;48.806;9.160;2023-02-15T16:50:01;9.90;81.70
1301;DHT22;67431;48.806;9.160;2023-02-15T16:52:29;9.60;83.70
1301;DHT22;67431;48.806;9.160;2023-02-15T16:55:00;9.40;86.10
1301;DHT22;67431;48.806;9.160;2023-02-15T16:57:33;9.20;88.20
1301;DHT22;67431;48.806;9.160;2023-02-15T17:00:16;8.90;89.30
1301;DHT22;67431;48.806;9.160;2023-02-15T17:02:58;8.70;90.80
1301;DHT22;67431;48.806;9.160;2023-02-15T17:05:40;8.50;92.40
1301;DHT22;67431;48.806;9.160;2023-02-15T17:10:45;8.00;93.70
1301;DHT22;67431;48.806;9.160;2023-02-15T17:13:13;7.80;95.50
1301;DHT22;67431;48.806;9.160;2023-02-15T17:18:20;7.50;98.30
1301;DHT22;67431;48.806;9.160;2023-02-15T17:20:52;7.40;98.90
1301;DHT22;67431;48.806;9.160;2023-02-15T17:23:32;7.30;99.90
1301;DHT22;67431;48.806;9.160;2023-02-15T17:26:02;7.10;99.90
1301;DHT22;67431;48.806;9.160;2023-02-15T17:28:38;7.00;99.90
1301;DHT22;67431;48.806;9.160;2023-02-15T17:31:13;6.90;99.90
1301;DHT22;67431;48.806;9.160;2023-02-15T17:33:40;6.80;99.90
1301;DHT22;67431;48.806;9.160;2023-02-15T17:36:21;6.70;99.90
1301;DHT22;67431;48.806;9.160;2023-02-15T17:43:49;6.30;99.90
1301;DHT22;67431;48.806;9.160;2023-02-15T17:46:15;6.20;99.90
1301;DHT22;67431;48.806;9.160;2023-02-15T17:48:48;6.10;99.90
1301;DHT22;67431;48.806;9.160;2023-02-15T17:51:15;6.10;99.90
1301;DHT22;67431;48.806;9.160;2023-02-15T17:53:42;6.00;99.90
1301;DHT22;67431;48.806;9.160;2023-02-15T17:56:28;5.90;99.90
1301;DHT22;67431;48.806;9.160;2023-02-15T17:58:54;5.70;99.90
1301;DHT22;67431;48.806;9.160;2023-02-15T18:01:20;5.60;99.90
1301;DHT22;67431;48.806;9.160;2023-02-15T18:04:10;5.40;99.90
1301;DHT22;67431;48.806;9.160;2023-02-15T18:06:55;5.30;99.90
1301;DHT22;67431;48.806;9.160;2023-02-15T18:09:39;5.20;99.90
1301;DHT22;67431;48.806;9.160;2023-02-15T18:14:51;5.10;99.90
1301;DHT22;67431;48.806;9.160;2023-02-15T18:20:00;4.90;99.90
1301;DHT22;67431;48.806;9.160;2023-02-15T18:22:30;4.80;99.90
1301;DHT22;67431;48.806;9.160;2023-02-15T18:24:56;4.80;99.90
1301;DHT22;67431;48.806;9.160;2023-02-15T18:27:23;4.80;99.90
1301;DHT22;67431;48.806;9.160;2023-02-15T18:29:48;4.80;99.90
1301;DHT22;67431;48.806;9.160;2023-02-15T18:32:22;4.80;99.90
1301;DHT22;67431;48.806;9.160;2023-02-15T18:34:55;4.70;99.90
1301;DHT22;67431;48.806;9.160;2023-02-15T18:37:21;4.70;99.90
1301;DHT22;67431;48.806;9.160;2023-02-15T18:39:49;4.70;99.90
1301;DHT22;67431;48.806;9.160;2023-02-15T18:42:26;4.60;99.90
1301;DHT22;67431;48.806;9.160;2023-02-15T18:44:57;4.60;99.90
1301;DHT22;67431;48.806;9.160;2023-02-15T18:47:26;4.60;99.90
1301;DHT22;67431;48.806;9.160;2023-02-15T18:49:53;4.60;99.90
1301;DHT22;67431;48.806;9.160;2023-02-15T18:52:22;4.60;99.90
1301;DHT22;67431;48.806;9.160;2023-02-15T18:54:52;4.50;99.90
1301;DHT22;67431;48.806;9.160;2023-02-15T18:57:18;4.50;99.90
1301;DHT22;67431;48.806;9.160;2023-02-15T18:59:44;4.40;99.90
1301;DHT22;67431;48.806;9.160;2023-02-15T19:02:17;4.40;99.90
1301;DHT22;67431;48.806;9.160;2023-02-15T19:04:43;4.40;99.90
1301;DHT22;67431;48.806;9.160;2023-02-15T19:07:24;4.30;99.90
1301;DHT22;67431;48.806;9.160;2023-02-15T19:09:57;4.20;99.90
1301;DHT22;67431;48.806;9.160;2023-02-15T19:12:26;4.30;99.90
1301;DHT22;67431;48.806;9.160;2023-02-15T19:14:52;4.20;99.90
1301;DHT22;67431;48.806;9.160;2023-02-15T19:17:20;4.20;99.90
1301;DHT22;67431;48.806;9.160;2023-02-15T19:19:49;4.10;99.90
1301;DHT22;67431;48.806;9.160;2023-02-15T19:22:27;4.10;99.90
1301;DHT22;67431;48.806;9.160;2023-02-15T19:25:01;4.00;99.90
1301;DHT22;67431;48.806;9.160;2023-02-15T19:30:04;3.90;99.90
1301;DHT22;67431;48.806;9.160;2023-02-15T19:32:35;3.80;99.90